^^
Saratoga-Weather Station Historical Data
Daily Summary for January 14, 2022 Units:  Both    English   Metric
Daily Weekly Monthly Yearly Custom
  High: Low: Average:
Temperature: 36.9 °F /  2.7 °C 28 °F /  -2.2 °C 31.8 °F /  -0.1 °C
Dew Point: 35.8 °F /  2.1 °C 27.3 °F /  -2.6 °C 30.9 °F /  -0.6 °C
Humidity: 98% 94% 96%
Wind Speed: 2.9mph /  4.7km/h - 0.1mph /  0.1km/h
Wind Gust: 4mph /  6.4km/h - -
Wind- - ESE
Pressure: 30.7 in /  1038.6 hPa 30.5 in /  1031.5 hPa -
Precipitation: 0 in /  0.0 mm    
Historical Graphs
 
 
Tabular Data for January 14, 2022
Time Temperature Dew Point Pressure Wind Wind Speed Wind Gust Humidity Rainfall Rate (Hourly) solar
00:00 30 °F /  -1.1 °C 28.9 °F /  -1.7 °C 30.7in /  1038.6hPa Calm     96% 0in /  0.0mm 0 W/m2
00:05 30 °F /  -1.1 °C 28.9 °F /  -1.7 °C 30.7in /  1038.6hPa Calm     96% 0in /  0.0mm 0 W/m2
00:10 30 °F /  -1.1 °C 28.9 °F /  -1.7 °C 30.7in /  1038.6hPa Calm     96% 0in /  0.0mm 0 W/m2
00:15 30 °F /  -1.1 °C 28.9 °F /  -1.7 °C 30.7in /  1038.3hPa Calm     96% 0in /  0.0mm 0 W/m2
00:20 30 °F /  -1.1 °C 28.9 °F /  -1.7 °C 30.7in /  1038.3hPa Calm     96% 0in /  0.0mm 0 W/m2
00:25 30.4 °F /  -0.9 °C 29.3 °F /  -1.5 °C 30.7in /  1038.3hPa Calm     96% 0in /  0.0mm 0 W/m2
00:30 30.4 °F /  -0.9 °C 29.3 °F /  -1.5 °C 30.7in /  1038.3hPa Calm     96% 0in /  0.0mm 0 W/m2
00:36 30.2 °F /  -1 °C 29.1 °F /  -1.6 °C 30.7in /  1038.3hPa Calm     96% 0in /  0.0mm 0 W/m2
00:41 30 °F /  -1.1 °C 28.9 °F /  -1.7 °C 30.7in /  1038.3hPa Calm     96% 0in /  0.0mm 0 W/m2
00:46 30 °F /  -1.1 °C 28.9 °F /  -1.7 °C 30.7in /  1038.3hPa Calm     96% 0in /  0.0mm 0 W/m2
00:51 29.8 °F /  -1.2 °C 28.8 °F /  -1.8 °C 30.7in /  1038.3hPa Calm     96% 0in /  0.0mm 0 W/m2
00:56 29.8 °F /  -1.2 °C 28.8 °F /  -1.8 °C 30.7in /  1038.3hPa Calm     96% 0in /  0.0mm 0 W/m2
01:01 29.8 °F /  -1.2 °C 28.8 °F /  -1.8 °C 30.7in /  1038.3hPa Calm     96% 0in /  0.0mm 0 W/m2
01:06 29.8 °F /  -1.2 °C 28.8 °F /  -1.8 °C 30.7in /  1038.3hPa Calm     96% 0in /  0.0mm 0 W/m2
01:11 29.8 °F /  -1.2 °C 28.8 °F /  -1.8 °C 30.7in /  1037.9hPa Calm     96% 0in /  0.0mm 0 W/m2
01:16 29.7 °F /  -1.3 °C 28.6 °F /  -1.9 °C 30.7in /  1037.9hPa Calm     96% 0in /  0.0mm 0 W/m2
01:21 29.7 °F /  -1.3 °C 28.6 °F /  -1.9 °C 30.7in /  1037.9hPa Calm     96% 0in /  0.0mm 0 W/m2
01:26 29.7 °F /  -1.3 °C 28.6 °F /  -1.9 °C 30.7in /  1037.9hPa Calm     96% 0in /  0.0mm 0 W/m2
01:31 29.7 °F /  -1.3 °C 28.6 °F /  -1.9 °C 30.7in /  1037.9hPa Calm     96% 0in /  0.0mm 0 W/m2
01:36 29.7 °F /  -1.3 °C 28.6 °F /  -1.9 °C 30.7in /  1037.9hPa Calm     96% 0in /  0.0mm 0 W/m2
01:41 29.5 °F /  -1.4 °C 28.4 °F /  -2 °C 30.7in /  1037.9hPa Calm     96% 0in /  0.0mm 0 W/m2
01:46 29.7 °F /  -1.3 °C 28.6 °F /  -1.9 °C 30.7in /  1037.9hPa Calm     96% 0in /  0.0mm 0 W/m2
01:51 29.7 °F /  -1.3 °C 28.6 °F /  -1.9 °C 30.6in /  1037.6hPa Calm     96% 0in /  0.0mm 0 W/m2
01:56 29.7 °F /  -1.3 °C 28.9 °F /  -1.7 °C 30.6in /  1037.6hPa Calm     97% 0in /  0.0mm 0 W/m2
02:01 29.7 °F /  -1.3 °C 28.9 °F /  -1.7 °C 30.6in /  1037.6hPa Calm     97% 0in /  0.0mm 0 W/m2
02:06 29.7 °F /  -1.3 °C 28.9 °F /  -1.7 °C 30.6in /  1037.6hPa Calm     97% 0in /  0.0mm 0 W/m2
02:11 29.7 °F /  -1.3 °C 28.9 °F /  -1.7 °C 30.6in /  1037.6hPa Calm     97% 0in /  0.0mm 0 W/m2
02:16 29.7 °F /  -1.3 °C 28.9 °F /  -1.7 °C 30.6in /  1037.6hPa Calm     97% 0in /  0.0mm 0 W/m2
02:21 29.7 °F /  -1.3 °C 28.9 °F /  -1.7 °C 30.6in /  1037.6hPa Calm     97% 0in /  0.0mm 0 W/m2
02:26 29.7 °F /  -1.3 °C 28.9 °F /  -1.7 °C 30.6in /  1037.6hPa Calm     97% 0in /  0.0mm 0 W/m2
02:31 29.8 °F /  -1.2 °C 29.1 °F /  -1.6 °C 30.6in /  1037.6hPa Calm     97% 0in /  0.0mm 0 W/m2
02:36 29.8 °F /  -1.2 °C 29.1 °F /  -1.6 °C 30.6in /  1037.2hPa Calm     97% 0in /  0.0mm 0 W/m2
02:41 29.8 °F /  -1.2 °C 29.1 °F /  -1.6 °C 30.6in /  1037.2hPa Calm     97% 0in /  0.0mm 0 W/m2
02:46 29.8 °F /  -1.2 °C 29.1 °F /  -1.6 °C 30.6in /  1037.2hPa Calm     97% 0in /  0.0mm 0 W/m2
02:51 29.8 °F /  -1.2 °C 29.1 °F /  -1.6 °C 30.6in /  1037.2hPa Calm     97% 0in /  0.0mm 0 W/m2
02:56 29.7 °F /  -1.3 °C 28.9 °F /  -1.7 °C 30.6in /  1037.2hPa Calm     97% 0in /  0.0mm 0 W/m2
03:01 29.7 °F /  -1.3 °C 28.9 °F /  -1.7 °C 30.6in /  1037.2hPa Calm     97% 0in /  0.0mm 0 W/m2
03:06 29.7 °F /  -1.3 °C 28.9 °F /  -1.7 °C 30.6in /  1037.2hPa Calm     97% 0in /  0.0mm 0 W/m2
03:11 29.7 °F /  -1.3 °C 28.6 °F /  -1.9 °C 30.6in /  1037.2hPa Calm     96% 0in /  0.0mm 0 W/m2
03:16 29.7 °F /  -1.3 °C 28.9 °F /  -1.7 °C 30.6in /  1037.2hPa Calm     97% 0in /  0.0mm 0 W/m2
03:21 29.7 °F /  -1.3 °C 28.6 °F /  -1.9 °C 30.6in /  1037.2hPa Calm     96% 0in /  0.0mm 0 W/m2
03:26 29.7 °F /  -1.3 °C 28.6 °F /  -1.9 °C 30.6in /  1037.2hPa Calm     96% 0in /  0.0mm 0 W/m2
03:31 29.5 °F /  -1.4 °C 28.4 °F /  -2 °C 30.6in /  1037.2hPa Calm     96% 0in /  0.0mm 0 W/m2
03:36 29.5 °F /  -1.4 °C 28.4 °F /  -2 °C 30.6in /  1036.9hPa Calm     96% 0in /  0.0mm 0 W/m2
03:41 29.5 °F /  -1.4 °C 28.4 °F /  -2 °C 30.6in /  1037.2hPa Calm     96% 0in /  0.0mm 0 W/m2
03:46 29.5 °F /  -1.4 °C 28.4 °F /  -2 °C 30.6in /  1037.2hPa Calm     96% 0in /  0.0mm 0 W/m2
03:51 29.5 °F /  -1.4 °C 28.4 °F /  -2 °C 30.6in /  1036.9hPa Calm     96% 0in /  0.0mm 0 W/m2
03:56 29.3 °F /  -1.5 °C 28.6 °F /  -1.9 °C 30.6in /  1036.9hPa Calm     97% 0in /  0.0mm 0 W/m2
04:01 29.1 °F /  -1.6 °C 28.4 °F /  -2 °C 30.6in /  1036.9hPa Calm     97% 0in /  0.0mm 0 W/m2
04:06 29.1 °F /  -1.6 °C 28.4 °F /  -2 °C 30.6in /  1036.9hPa Calm     97% 0in /  0.0mm 0 W/m2
04:12 29.1 °F /  -1.6 °C 28.4 °F /  -2 °C 30.6in /  1036.9hPa Calm     97% 0in /  0.0mm 0 W/m2
04:17 29.1 °F /  -1.6 °C 28.4 °F /  -2 °C 30.6in /  1036.9hPa Calm     97% 0in /  0.0mm 0 W/m2
04:22 29.3 °F /  -1.5 °C 28.6 °F /  -1.9 °C 30.6in /  1036.9hPa Calm     97% 0in /  0.0mm 0 W/m2
04:27 29.1 °F /  -1.6 °C 28.4 °F /  -2 °C 30.6in /  1036.9hPa Calm     97% 0in /  0.0mm 0 W/m2
04:32 29.1 °F /  -1.6 °C 28.4 °F /  -2 °C 30.6in /  1036.9hPa Calm     97% 0in /  0.0mm 0 W/m2
04:37 29.1 °F /  -1.6 °C 28 °F /  -2.2 °C 30.6in /  1036.9hPa Calm     96% 0in /  0.0mm 0 W/m2
04:42 29.1 °F /  -1.6 °C 28 °F /  -2.2 °C 30.6in /  1036.9hPa Calm     96% 0in /  0.0mm 0 W/m2
04:47 29.1 °F /  -1.6 °C 28 °F /  -2.2 °C 30.6in /  1036.9hPa Calm     96% 0in /  0.0mm 0 W/m2
04:52 29.1 °F /  -1.6 °C 28 °F /  -2.2 °C 30.6in /  1036.9hPa Calm     96% 0in /  0.0mm 0 W/m2
04:57 29.1 °F /  -1.6 °C 28 °F /  -2.2 °C 30.6in /  1036.9hPa Calm     96% 0in /  0.0mm 0 W/m2
05:02 29.1 °F /  -1.6 °C 28.4 °F /  -2 °C 30.6in /  1036.9hPa Calm     97% 0in /  0.0mm 0 W/m2
05:07 29.3 °F /  -1.5 °C 28.6 °F /  -1.9 °C 30.6in /  1036.9hPa Calm     97% 0in /  0.0mm 0 W/m2
05:12 29.3 °F /  -1.5 °C 28.6 °F /  -1.9 °C 30.6in /  1036.6hPa Calm     97% 0in /  0.0mm 0 W/m2
05:17 29.3 °F /  -1.5 °C 28.6 °F /  -1.9 °C 30.6in /  1036.6hPa Calm     97% 0in /  0.0mm 0 W/m2
05:22 29.1 °F /  -1.6 °C 28.4 °F /  -2 °C 30.6in /  1036.6hPa Calm     97% 0in /  0.0mm 0 W/m2
05:27 29.1 °F /  -1.6 °C 28.4 °F /  -2 °C 30.6in /  1036.6hPa Calm     97% 0in /  0.0mm 0 W/m2
05:32 28.9 °F /  -1.7 °C 28.2 °F /  -2.1 °C 30.6in /  1036.6hPa Calm     97% 0in /  0.0mm 0 W/m2
05:37 28.9 °F /  -1.7 °C 27.9 °F /  -2.3 °C 30.6in /  1036.6hPa Calm     96% 0in /  0.0mm 0 W/m2
05:42 28.8 °F /  -1.8 °C 28 °F /  -2.2 °C 30.6in /  1036.6hPa Calm     97% 0in /  0.0mm 0 W/m2
05:47 28.8 °F /  -1.8 °C 28 °F /  -2.2 °C 30.6in /  1036.6hPa Calm     97% 0in /  0.0mm 0 W/m2
05:52 28.8 °F /  -1.8 °C 28 °F /  -2.2 °C 30.6in /  1036.6hPa Calm     97% 0in /  0.0mm 0 W/m2
05:57 28.8 °F /  -1.8 °C 28 °F /  -2.2 °C 30.6in /  1036.6hPa Calm     97% 0in /  0.0mm 0 W/m2
06:02 28.8 °F /  -1.8 °C 28 °F /  -2.2 °C 30.6in /  1036.6hPa Calm     97% 0in /  0.0mm 0 W/m2
06:07 28.8 °F /  -1.8 °C 28 °F /  -2.2 °C 30.6in /  1036.6hPa Calm     97% 0in /  0.0mm 0 W/m2
06:12 28.8 °F /  -1.8 °C 28 °F /  -2.2 °C 30.6in /  1036.6hPa Calm     97% 0in /  0.0mm 0 W/m2
06:17 28.8 °F /  -1.8 °C 28 °F /  -2.2 °C 30.6in /  1036.6hPa Calm     97% 0in /  0.0mm 0 W/m2
06:22 28.8 °F /  -1.8 °C 28 °F /  -2.2 °C 30.6in /  1036.2hPa Calm     97% 0in /  0.0mm 0 W/m2
06:27 28.8 °F /  -1.8 °C 28 °F /  -2.2 °C 30.6in /  1036.6hPa Calm     97% 0in /  0.0mm 0 W/m2
06:32 28.8 °F /  -1.8 °C 28 °F /  -2.2 °C 30.6in /  1036.6hPa Calm     97% 0in /  0.0mm 0 W/m2
06:37 28.8 °F /  -1.8 °C 28 °F /  -2.2 °C 30.6in /  1036.6hPa Calm     97% 0in /  0.0mm 0 W/m2
06:42 28.8 °F /  -1.8 °C 28 °F /  -2.2 °C 30.6in /  1036.6hPa Calm   1mph /  1.6km/h 97% 0in /  0.0mm 0 W/m2
06:47 28.9 °F /  -1.7 °C 28.2 °F /  -2.1 °C 30.6in /  1036.6hPa Calm     97% 0in /  0.0mm 0 W/m2
06:52 28.9 °F /  -1.7 °C 28.2 °F /  -2.1 °C 30.6in /  1036.6hPa Calm     97% 0in /  0.0mm 0 W/m2
06:57 29.1 °F /  -1.6 °C 28.4 °F /  -2 °C 30.6in /  1036.6hPa Calm     97% 0in /  0.0mm 0 W/m2
07:02 29.1 °F /  -1.6 °C 28.4 °F /  -2 °C 30.6in /  1036.6hPa Calm     97% 0in /  0.0mm 0 W/m2
07:08 29.1 °F /  -1.6 °C 28.4 °F /  -2 °C 30.6in /  1036.6hPa Calm     97% 0in /  0.0mm 0 W/m2
07:13 29.3 °F /  -1.5 °C 28.6 °F /  -1.9 °C 30.6in /  1036.6hPa Calm     97% 0in /  0.0mm 0 W/m2
07:18 29.3 °F /  -1.5 °C 28.6 °F /  -1.9 °C 30.6in /  1036.6hPa Calm     97% 0in /  0.0mm 0 W/m2
07:23 29.5 °F /  -1.4 °C 28.8 °F /  -1.8 °C 30.6in /  1036.6hPa Calm     97% 0in /  0.0mm 0 W/m2
07:28 29.3 °F /  -1.5 °C 28.6 °F /  -1.9 °C 30.6in /  1036.6hPa Calm     97% 0in /  0.0mm 0 W/m2
07:33 29.1 °F /  -1.6 °C 28.4 °F /  -2 °C 30.6in /  1036.6hPa Calm     97% 0in /  0.0mm 0 W/m2
07:38 28.9 °F /  -1.7 °C 28.2 °F /  -2.1 °C 30.6in /  1036.6hPa Calm     97% 0in /  0.0mm 0 W/m2
07:43 28.9 °F /  -1.7 °C 28.2 °F /  -2.1 °C 30.6in /  1036.6hPa Calm     97% 0in /  0.0mm 0 W/m2
07:48 28.8 °F /  -1.8 °C 28 °F /  -2.2 °C 30.6in /  1036.2hPa Calm     97% 0in /  0.0mm 0 W/m2
07:53 28.8 °F /  -1.8 °C 28 °F /  -2.2 °C 30.6in /  1036.2hPa Calm     97% 0in /  0.0mm 0 W/m2
07:58 28.6 °F /  -1.9 °C 27.9 °F /  -2.3 °C 30.6in /  1036.2hPa Calm   2mph /  3.2km/h 97% 0in /  0.0mm 0 W/m2
08:03 28.8 °F /  -1.8 °C 28 °F /  -2.2 °C 30.6in /  1036.2hPa Calm     97% 0in /  0.0mm 0 W/m2
08:08 28.8 °F /  -1.8 °C 28 °F /  -2.2 °C 30.6in /  1036.2hPa Calm     97% 0in /  0.0mm 0 W/m2
08:13 28.6 °F /  -1.9 °C 27.9 °F /  -2.3 °C 30.6in /  1036.2hPa Calm     97% 0in /  0.0mm 0 W/m2
08:18 28.6 °F /  -1.9 °C 27.9 °F /  -2.3 °C 30.6in /  1036.2hPa Calm     97% 0in /  0.0mm 0 W/m2
08:23 28.4 °F /  -2 °C 27.7 °F /  -2.4 °C 30.6in /  1036.6hPa Calm     97% 0in /  0.0mm 0 W/m2
08:28 28.2 °F /  -2.1 °C 27.5 °F /  -2.5 °C 30.6in /  1036.2hPa Calm     97% 0in /  0.0mm 5 W/m2
08:33 28.2 °F /  -2.1 °C 27.5 °F /  -2.5 °C 30.6in /  1036.2hPa Calm     97% 0in /  0.0mm 5 W/m2
08:38 28.2 °F /  -2.1 °C 27.5 °F /  -2.5 °C 30.6in /  1036.6hPa Calm     97% 0in /  0.0mm 7 W/m2
08:43 28.2 °F /  -2.1 °C 27.5 °F /  -2.5 °C 30.6in /  1036.6hPa Calm     97% 0in /  0.0mm 9 W/m2
08:48 28.2 °F /  -2.1 °C 27.5 °F /  -2.5 °C 30.6in /  1036.6hPa Calm     97% 0in /  0.0mm 11 W/m2
08:53 28.2 °F /  -2.1 °C 27.5 °F /  -2.5 °C 30.6in /  1036.6hPa Calm     97% 0in /  0.0mm 11 W/m2
08:58 28 °F /  -2.2 °C 27.3 °F /  -2.6 °C 30.6in /  1036.6hPa Calm     97% 0in /  0.0mm 12 W/m2
09:03 28 °F /  -2.2 °C 27.3 °F /  -2.6 °C 30.6in /  1036.6hPa Calm     97% 0in /  0.0mm 14 W/m2
09:08 28 °F /  -2.2 °C 27.3 °F /  -2.6 °C 30.6in /  1036.6hPa Calm     97% 0in /  0.0mm 14 W/m2
09:13 28 °F /  -2.2 °C 27.3 °F /  -2.6 °C 30.6in /  1036.6hPa Calm     97% 0in /  0.0mm 16 W/m2
09:18 28 °F /  -2.2 °C 27.3 °F /  -2.6 °C 30.6in /  1036.6hPa Calm     97% 0in /  0.0mm 16 W/m2
09:23 28 °F /  -2.2 °C 27.3 °F /  -2.6 °C 30.6in /  1036.6hPa Calm     97% 0in /  0.0mm 18 W/m2
09:28 28 °F /  -2.2 °C 27.3 °F /  -2.6 °C 30.6in /  1036.6hPa Calm     97% 0in /  0.0mm 21 W/m2
09:33 28.2 °F /  -2.1 °C 27.5 °F /  -2.5 °C 30.6in /  1036.6hPa Calm     97% 0in /  0.0mm 21 W/m2
09:38 28.4 °F /  -2 °C 27.7 °F /  -2.4 °C 30.6in /  1036.6hPa Calm     97% 0in /  0.0mm 21 W/m2
09:43 28.4 °F /  -2 °C 27.7 °F /  -2.4 °C 30.6in /  1036.6hPa Calm     97% 0in /  0.0mm 21 W/m2
09:48 28.6 °F /  -1.9 °C 27.9 °F /  -2.3 °C 30.6in /  1036.6hPa Calm     97% 0in /  0.0mm 21 W/m2
09:53 28.6 °F /  -1.9 °C 27.9 °F /  -2.3 °C 30.6in /  1036.6hPa Calm     97% 0in /  0.0mm 23 W/m2
09:58 28.6 °F /  -1.9 °C 27.9 °F /  -2.3 °C 30.6in /  1036.6hPa Calm     97% 0in /  0.0mm 25 W/m2
10:03 28.8 °F /  -1.8 °C 28 °F /  -2.2 °C 30.6in /  1036.6hPa Calm     97% 0in /  0.0mm 25 W/m2
10:08 28.8 °F /  -1.8 °C 28 °F /  -2.2 °C 30.6in /  1036.6hPa Calm     97% 0in /  0.0mm 25 W/m2
10:13 28.9 °F /  -1.7 °C 28.2 °F /  -2.1 °C 30.6in /  1036.6hPa Calm     97% 0in /  0.0mm 25 W/m2
10:18 29.1 °F /  -1.6 °C 28.4 °F /  -2 °C 30.6in /  1036.6hPa Calm     97% 0in /  0.0mm 25 W/m2
10:23 29.5 °F /  -1.4 °C 28.8 °F /  -1.8 °C 30.6in /  1036.6hPa Calm     97% 0in /  0.0mm 25 W/m2
10:28 29.7 °F /  -1.3 °C 28.9 °F /  -1.7 °C 30.6in /  1036.6hPa Calm     97% 0in /  0.0mm 28 W/m2
10:33 29.7 °F /  -1.3 °C 28.9 °F /  -1.7 °C 30.6in /  1036.6hPa Calm     97% 0in /  0.0mm 25 W/m2
10:38 29.8 °F /  -1.2 °C 29.1 °F /  -1.6 °C 30.6in /  1036.6hPa Calm     97% 0in /  0.0mm 23 W/m2
10:43 30 °F /  -1.1 °C 29.3 °F /  -1.5 °C 30.6in /  1036.6hPa Calm     97% 0in /  0.0mm 30 W/m2
10:48 30.2 °F /  -1 °C 29.5 °F /  -1.4 °C 30.6in /  1036.6hPa Calm     97% 0in /  0.0mm 28 W/m2
10:53 30.6 °F /  -0.8 °C 29.8 °F /  -1.2 °C 30.6in /  1036.6hPa Calm     97% 0in /  0.0mm 25 W/m2
10:58 30.6 °F /  -0.8 °C 29.8 °F /  -1.2 °C 30.6in /  1036.6hPa SSW 0.9mph /  1.4km/h 1mph /  1.6km/h 97% 0in /  0.0mm 25 W/m2
11:03 30.7 °F /  -0.7 °C 30 °F /  -1.1 °C 30.6in /  1036.6hPa Calm     97% 0in /  0.0mm 25 W/m2
11:08 30.9 °F /  -0.6 °C 30.2 °F /  -1 °C 30.6in /  1036.6hPa Calm     97% 0in /  0.0mm 25 W/m2
11:13 31.3 °F /  -0.4 °C 30.6 °F /  -0.8 °C 30.6in /  1036.9hPa Calm     97% 0in /  0.0mm 25 W/m2
11:18 31.5 °F /  -0.3 °C 30.7 °F /  -0.7 °C 30.6in /  1036.9hPa Calm     97% 0in /  0.0mm 26 W/m2
11:23 31.6 °F /  -0.2 °C 30.9 °F /  -0.6 °C 30.6in /  1036.6hPa Calm     97% 0in /  0.0mm 25 W/m2
11:28 31.6 °F /  -0.2 °C 30.9 °F /  -0.6 °C 30.6in /  1036.6hPa Calm     97% 0in /  0.0mm 23 W/m2
11:33 31.8 °F /  -0.1 °C 31.1 °F /  -0.5 °C 30.6in /  1036.6hPa Calm     97% 0in /  0.0mm 23 W/m2
11:38 32 °F /  0 °C 31.3 °F /  -0.4 °C 30.6in /  1036.6hPa Calm   1mph /  1.6km/h 97% 0in /  0.0mm 28 W/m2
11:43 32.2 °F /  0.1 °C 31.5 °F /  -0.3 °C 30.6in /  1036.6hPa Calm     97% 0in /  0.0mm 25 W/m2
11:48 32.4 °F /  0.2 °C 31.6 °F /  -0.2 °C 30.6in /  1036.2hPa Calm   1mph /  1.6km/h 97% 0in /  0.0mm 25 W/m2
11:53 32.5 °F /  0.3 °C 31.8 °F /  -0.1 °C 30.6in /  1036.2hPa Calm   1mph /  1.6km/h 97% 0in /  0.0mm 25 W/m2
11:58 32.9 °F /  0.5 °C 32.2 °F /  0.1 °C 30.6in /  1036.2hPa Calm   1mph /  1.6km/h 97% 0in /  0.0mm 25 W/m2
12:03 33.1 °F /  0.6 °C 32.4 °F /  0.2 °C 30.6in /  1036.2hPa Calm   1mph /  1.6km/h 97% 0in /  0.0mm 25 W/m2
12:08 33.3 °F /  0.7 °C 32.5 °F /  0.3 °C 30.6in /  1036.2hPa Calm     97% 0in /  0.0mm 25 W/m2
12:13 33.4 °F /  0.8 °C 32.7 °F /  0.4 °C 30.6in /  1036.2hPa Calm     97% 0in /  0.0mm 25 W/m2
12:18 33.6 °F /  0.9 °C 32.9 °F /  0.5 °C 30.6in /  1035.9hPa Calm     97% 0in /  0.0mm 25 W/m2
12:23 33.8 °F /  1 °C 33.1 °F /  0.6 °C 30.6in /  1035.9hPa Calm     97% 0in /  0.0mm 25 W/m2
12:28 34.2 °F /  1.2 °C 33.4 °F /  0.8 °C 30.6in /  1035.9hPa NE 2mph /  3.2km/h 3mph /  4.8km/h 97% 0in /  0.0mm 25 W/m2
12:33 34.5 °F /  1.4 °C 34 °F /  1.1 °C 30.6in /  1035.9hPa Calm   1mph /  1.6km/h 98% 0in /  0.0mm 25 W/m2
12:38 34.9 °F /  1.6 °C 34.3 °F /  1.3 °C 30.6in /  1035.9hPa ENE 2.9mph /  4.7km/h 4mph /  6.4km/h 98% 0in /  0.0mm 26 W/m2
12:43 35.2 °F /  1.8 °C 34.5 °F /  1.4 °C 30.6in /  1035.9hPa East 0.9mph /  1.4km/h 2mph /  3.2km/h 97% 0in /  0.0mm 30 W/m2
12:48 35.2 °F /  1.8 °C 34.7 °F /  1.5 °C 30.6in /  1035.6hPa Calm   4mph /  6.4km/h 98% 0in /  0.0mm 26 W/m2
12:53 35.2 °F /  1.8 °C 34.7 °F /  1.5 °C 30.6in /  1035.6hPa Calm   2mph /  3.2km/h 98% 0in /  0.0mm 26 W/m2
12:58 35.4 °F /  1.9 °C 34.7 °F /  1.5 °C 30.6in /  1035.6hPa ESE 0.9mph /  1.4km/h 1mph /  1.6km/h 97% 0in /  0.0mm 26 W/m2
13:03 35.6 °F /  2 °C 34.9 °F /  1.6 °C 30.6in /  1035.6hPa Calm     97% 0in /  0.0mm 37 W/m2
13:08 35.6 °F /  2 °C 34.9 °F /  1.6 °C 30.6in /  1035.6hPa ESE 0.9mph /  1.4km/h 2mph /  3.2km/h 97% 0in /  0.0mm 28 W/m2
13:13 35.8 °F /  2.1 °C 35.1 °F /  1.7 °C 30.6in /  1035.6hPa Calm     97% 0in /  0.0mm 30 W/m2
13:18 36 °F /  2.2 °C 35.2 °F /  1.8 °C 30.6in /  1035.6hPa Calm     97% 0in /  0.0mm 28 W/m2
13:23 36.1 °F /  2.3 °C 35.4 °F /  1.9 °C 30.6in /  1035.6hPa East 0.9mph /  1.4km/h 2mph /  3.2km/h 97% 0in /  0.0mm 26 W/m2
13:28 36.3 °F /  2.4 °C 35.6 °F /  2 °C 30.6in /  1035.2hPa Calm     97% 0in /  0.0mm 26 W/m2
13:33 36.3 °F /  2.4 °C 35.6 °F /  2 °C 30.6in /  1035.2hPa Calm     97% 0in /  0.0mm 30 W/m2
13:38 36.3 °F /  2.4 °C 35.6 °F /  2 °C 30.6in /  1035.2hPa Calm     97% 0in /  0.0mm 26 W/m2
13:43 36.3 °F /  2.4 °C 35.6 °F /  2 °C 30.6in /  1034.9hPa Calm     97% 0in /  0.0mm 25 W/m2
13:48 36.3 °F /  2.4 °C 35.6 °F /  2 °C 30.6in /  1034.9hPa Calm     97% 0in /  0.0mm 25 W/m2
13:53 36.3 °F /  2.4 °C 35.6 °F /  2 °C 30.6in /  1034.9hPa Calm     97% 0in /  0.0mm 25 W/m2
13:58 36.3 °F /  2.4 °C 35.6 °F /  2 °C 30.6in /  1034.5hPa Calm     97% 0in /  0.0mm 33 W/m2
14:03 36.3 °F /  2.4 °C 35.6 °F /  2 °C 30.6in /  1034.5hPa Calm     97% 0in /  0.0mm 25 W/m2
14:08 36.3 °F /  2.4 °C 35.6 °F /  2 °C 30.6in /  1034.5hPa Calm     97% 0in /  0.0mm 25 W/m2
14:13 36.3 °F /  2.4 °C 35.6 °F /  2 °C 30.6in /  1034.5hPa Calm     97% 0in /  0.0mm 25 W/m2
14:19 36.3 °F /  2.4 °C 35.6 °F /  2 °C 30.6in /  1034.5hPa Calm     97% 0in /  0.0mm 25 W/m2
14:24 36.5 °F /  2.5 °C 35.4 °F /  1.9 °C 30.6in /  1034.5hPa Calm     96% 0in /  0.0mm 23 W/m2
14:29 36.5 °F /  2.5 °C 35.8 °F /  2.1 °C 30.6in /  1034.5hPa Calm     97% 0in /  0.0mm 23 W/m2
14:34 36.5 °F /  2.5 °C 35.4 °F /  1.9 °C 30.6in /  1034.5hPa Calm     96% 0in /  0.0mm 23 W/m2
14:39 36.5 °F /  2.5 °C 35.4 °F /  1.9 °C 30.6in /  1034.5hPa Calm     96% 0in /  0.0mm 23 W/m2
14:44 36.7 °F /  2.6 °C 35.6 °F /  2 °C 30.5in /  1034.2hPa East 0.9mph /  1.4km/h 2mph /  3.2km/h 96% 0in /  0.0mm 21 W/m2
14:49 36.7 °F /  2.6 °C 35.6 °F /  2 °C 30.5in /  1034.2hPa East 2mph /  3.2km/h 2mph /  3.2km/h 96% 0in /  0.0mm 21 W/m2
14:54 36.7 °F /  2.6 °C 35.6 °F /  2 °C 30.5in /  1034.2hPa Calm     96% 0in /  0.0mm 21 W/m2
14:59 36.7 °F /  2.6 °C 35.6 °F /  2 °C 30.5in /  1034.2hPa Calm     96% 0in /  0.0mm 21 W/m2
15:04 36.7 °F /  2.6 °C 35.6 °F /  2 °C 30.5in /  1034.2hPa Calm     96% 0in /  0.0mm 19 W/m2
15:09 36.7 °F /  2.6 °C 35.6 °F /  2 °C 30.5in /  1034.2hPa Calm   1mph /  1.6km/h 96% 0in /  0.0mm 19 W/m2
15:14 36.7 °F /  2.6 °C 35.6 °F /  2 °C 30.5in /  1034.2hPa ESE 0.9mph /  1.4km/h 2mph /  3.2km/h 96% 0in /  0.0mm 19 W/m2
15:19 36.5 °F /  2.5 °C 35.4 °F /  1.9 °C 30.5in /  1034.2hPa Calm   2mph /  3.2km/h 96% 0in /  0.0mm 19 W/m2
15:24 36.7 °F /  2.6 °C 35.6 °F /  2 °C 30.5in /  1034.2hPa ESE 0.9mph /  1.4km/h 2mph /  3.2km/h 96% 0in /  0.0mm 19 W/m2
15:29 36.5 °F /  2.5 °C 35.4 °F /  1.9 °C 30.5in /  1034.2hPa Calm     96% 0in /  0.0mm 19 W/m2
15:34 36.5 °F /  2.5 °C 35.4 °F /  1.9 °C 30.5in /  1034.2hPa Calm     96% 0in /  0.0mm 18 W/m2
15:39 36.5 °F /  2.5 °C 35.4 °F /  1.9 °C 30.5in /  1034.2hPa Calm     96% 0in /  0.0mm 18 W/m2
15:44 36.5 °F /  2.5 °C 35.4 °F /  1.9 °C 30.5in /  1033.9hPa ESE 2mph /  3.2km/h 2mph /  3.2km/h 96% 0in /  0.0mm 18 W/m2
15:49 36.7 °F /  2.6 °C 35.6 °F /  2 °C 30.5in /  1033.9hPa ESE 0.9mph /  1.4km/h 2mph /  3.2km/h 96% 0in /  0.0mm 16 W/m2
15:54 36.7 °F /  2.6 °C 35.6 °F /  2 °C 30.5in /  1033.9hPa Calm   1mph /  1.6km/h 96% 0in /  0.0mm 16 W/m2
15:59 36.7 °F /  2.6 °C 35.6 °F /  2 °C 30.5in /  1033.9hPa Calm   2mph /  3.2km/h 96% 0in /  0.0mm 16 W/m2
16:04 36.9 °F /  2.7 °C 35.6 °F /  2 °C 30.5in /  1033.9hPa Calm     95% 0in /  0.0mm 14 W/m2
16:09 36.9 °F /  2.7 °C 35.6 °F /  2 °C 30.5in /  1033.9hPa Calm   2mph /  3.2km/h 95% 0in /  0.0mm 14 W/m2
16:14 36.9 °F /  2.7 °C 35.6 °F /  2 °C 30.5in /  1033.9hPa Calm     95% 0in /  0.0mm 14 W/m2
16:19 36.7 °F /  2.6 °C 35.4 °F /  1.9 °C 30.5in /  1033.9hPa Calm     95% 0in /  0.0mm 12 W/m2
16:24 36.9 °F /  2.7 °C 35.6 °F /  2 °C 30.5in /  1033.9hPa Calm     95% 0in /  0.0mm 12 W/m2
16:29 36.9 °F /  2.7 °C 35.6 °F /  2 °C 30.5in /  1033.5hPa Calm     95% 0in /  0.0mm 12 W/m2
16:34 36.9 °F /  2.7 °C 35.6 °F /  2 °C 30.5in /  1033.5hPa Calm     95% 0in /  0.0mm 11 W/m2
16:39 36.9 °F /  2.7 °C 35.6 °F /  2 °C 30.5in /  1033.5hPa Calm     95% 0in /  0.0mm 11 W/m2
16:44 36.9 °F /  2.7 °C 35.6 °F /  2 °C 30.5in /  1033.5hPa Calm     95% 0in /  0.0mm 9 W/m2
16:49 36.9 °F /  2.7 °C 35.6 °F /  2 °C 30.5in /  1033.5hPa Calm     95% 0in /  0.0mm 7 W/m2
16:54 36.7 °F /  2.6 °C 35.4 °F /  1.9 °C 30.5in /  1033.5hPa Calm     95% 0in /  0.0mm 7 W/m2
16:59 36.7 °F /  2.6 °C 35.4 °F /  1.9 °C 30.5in /  1033.5hPa Calm     95% 0in /  0.0mm 5 W/m2
17:04 36.7 °F /  2.6 °C 35.4 °F /  1.9 °C 30.5in /  1033.5hPa Calm     95% 0in /  0.0mm 5 W/m2
17:09 36.7 °F /  2.6 °C 35.4 °F /  1.9 °C 30.5in /  1033.5hPa Calm     95% 0in /  0.0mm 0 W/m2
17:14 36.7 °F /  2.6 °C 35.4 °F /  1.9 °C 30.5in /  1033.5hPa Calm     95% 0in /  0.0mm 0 W/m2
17:19 36.7 °F /  2.6 °C 35.4 °F /  1.9 °C 30.5in /  1033.5hPa Calm     95% 0in /  0.0mm 0 W/m2
17:24 36.7 °F /  2.6 °C 35.4 °F /  1.9 °C 30.5in /  1033.2hPa Calm     95% 0in /  0.0mm 0 W/m2
17:29 36.5 °F /  2.5 °C 35.2 °F /  1.8 °C 30.5in /  1033.5hPa Calm     95% 0in /  0.0mm 0 W/m2
17:34 36.3 °F /  2.4 °C 34.7 °F /  1.5 °C 30.5in /  1033.2hPa Calm     94% 0in /  0.0mm 0 W/m2
17:39 36.3 °F /  2.4 °C 34.7 °F /  1.5 °C 30.5in /  1033.2hPa Calm     94% 0in /  0.0mm 0 W/m2
17:44 36.1 °F /  2.3 °C 34.5 °F /  1.4 °C 30.5in /  1033.2hPa Calm     94% 0in /  0.0mm 0 W/m2
17:49 36.1 °F /  2.3 °C 34.5 °F /  1.4 °C 30.5in /  1033.2hPa Calm     94% 0in /  0.0mm 0 W/m2
17:54 36.1 °F /  2.3 °C 34.5 °F /  1.4 °C 30.5in /  1033.2hPa Calm     94% 0in /  0.0mm 0 W/m2
17:59 36 °F /  2.2 °C 34.3 °F /  1.3 °C 30.5in /  1033.2hPa Calm     94% 0in /  0.0mm 0 W/m2
18:04 36 °F /  2.2 °C 34.3 °F /  1.3 °C 30.5in /  1033.2hPa Calm     94% 0in /  0.0mm 0 W/m2
18:09 35.8 °F /  2.1 °C 34.2 °F /  1.2 °C 30.5in /  1033.2hPa Calm     94% 0in /  0.0mm 0 W/m2
18:14 35.8 °F /  2.1 °C 34.2 °F /  1.2 °C 30.5in /  1033.2hPa Calm     94% 0in /  0.0mm 0 W/m2
18:19 35.6 °F /  2 °C 34 °F /  1.1 °C 30.5in /  1033.2hPa Calm     94% 0in /  0.0mm 0 W/m2
18:24 35.4 °F /  1.9 °C 33.8 °F /  1 °C 30.5in /  1033.2hPa Calm     94% 0in /  0.0mm 0 W/m2
18:29 35.2 °F /  1.8 °C 34 °F /  1.1 °C 30.5in /  1033.2hPa Calm     95% 0in /  0.0mm 0 W/m2
18:34 35.2 °F /  1.8 °C 33.6 °F /  0.9 °C 30.5in /  1033.2hPa Calm     94% 0in /  0.0mm 0 W/m2
18:39 35.1 °F /  1.7 °C 33.4 °F /  0.8 °C 30.5in /  1033.2hPa Calm     94% 0in /  0.0mm 0 W/m2
18:44 34.9 °F /  1.6 °C 33.3 °F /  0.7 °C 30.5in /  1032.8hPa Calm     94% 0in /  0.0mm 0 W/m2
18:49 34.7 °F /  1.5 °C 33.1 °F /  0.6 °C 30.5in /  1032.8hPa Calm     94% 0in /  0.0mm 0 W/m2
18:54 34.5 °F /  1.4 °C 32.9 °F /  0.5 °C 30.5in /  1032.8hPa Calm     94% 0in /  0.0mm 0 W/m2
18:59 34.3 °F /  1.3 °C 33.1 °F /  0.6 °C 30.5in /  1032.8hPa Calm     95% 0in /  0.0mm 0 W/m2
19:04 34.3 °F /  1.3 °C 33.1 °F /  0.6 °C 30.5in /  1032.8hPa Calm     95% 0in /  0.0mm 0 W/m2
19:09 34.3 °F /  1.3 °C 33.1 °F /  0.6 °C 30.5in /  1032.8hPa Calm     95% 0in /  0.0mm 0 W/m2
19:14 34.3 °F /  1.3 °C 33.1 °F /  0.6 °C 30.5in /  1033.2hPa Calm     95% 0in /  0.0mm 0 W/m2
19:19 34.3 °F /  1.3 °C 33.1 °F /  0.6 °C 30.5in /  1033.2hPa Calm     95% 0in /  0.0mm 0 W/m2
19:24 34.2 °F /  1.2 °C 32.9 °F /  0.5 °C 30.5in /  1033.2hPa Calm     95% 0in /  0.0mm 0 W/m2
19:29 34.2 °F /  1.2 °C 32.9 °F /  0.5 °C 30.5in /  1032.8hPa Calm     95% 0in /  0.0mm 0 W/m2
19:34 34 °F /  1.1 °C 32.7 °F /  0.4 °C 30.5in /  1032.8hPa Calm     95% 0in /  0.0mm 0 W/m2
19:39 33.8 °F /  1 °C 32.5 °F /  0.3 °C 30.5in /  1032.8hPa Calm     95% 0in /  0.0mm 0 W/m2
19:44 33.6 °F /  0.9 °C 32.4 °F /  0.2 °C 30.5in /  1032.8hPa Calm     95% 0in /  0.0mm 0 W/m2
19:49 33.6 °F /  0.9 °C 32.4 °F /  0.2 °C 30.5in /  1032.8hPa Calm     95% 0in /  0.0mm 0 W/m2
19:54 33.4 °F /  0.8 °C 32.2 °F /  0.1 °C 30.5in /  1032.8hPa Calm     95% 0in /  0.0mm 0 W/m2
19:59 33.3 °F /  0.7 °C 32 °F /  0 °C 30.5in /  1032.8hPa Calm     95% 0in /  0.0mm 0 W/m2
20:04 33.1 °F /  0.6 °C 31.8 °F /  -0.1 °C 30.5in /  1032.8hPa Calm     95% 0in /  0.0mm 0 W/m2
20:09 33.1 °F /  0.6 °C 31.8 °F /  -0.1 °C 30.5in /  1032.8hPa Calm     95% 0in /  0.0mm 0 W/m2
20:14 32.9 °F /  0.5 °C 31.6 °F /  -0.2 °C 30.5in /  1032.8hPa Calm     95% 0in /  0.0mm 0 W/m2
20:19 32.7 °F /  0.4 °C 31.5 °F /  -0.3 °C 30.5in /  1032.8hPa Calm     95% 0in /  0.0mm 0 W/m2
20:24 32.5 °F /  0.3 °C 31.3 °F /  -0.4 °C 30.5in /  1032.8hPa Calm     95% 0in /  0.0mm 0 W/m2
20:29 32.5 °F /  0.3 °C 31.3 °F /  -0.4 °C 30.5in /  1032.8hPa Calm     95% 0in /  0.0mm 0 W/m2
20:34 32.5 °F /  0.3 °C 31.3 °F /  -0.4 °C 30.5in /  1032.8hPa Calm     95% 0in /  0.0mm 0 W/m2
20:39 32.4 °F /  0.2 °C 31.1 °F /  -0.5 °C 30.5in /  1032.8hPa Calm     95% 0in /  0.0mm 0 W/m2
20:44 32.4 °F /  0.2 °C 31.1 °F /  -0.5 °C 30.5in /  1032.8hPa Calm     95% 0in /  0.0mm 0 W/m2
20:49 32.2 °F /  0.1 °C 30.9 °F /  -0.6 °C 30.5in /  1032.5hPa Calm     95% 0in /  0.0mm 0 W/m2
20:54 32.2 °F /  0.1 °C 30.9 °F /  -0.6 °C 30.5in /  1032.5hPa Calm     95% 0in /  0.0mm 0 W/m2
21:00 32.2 °F /  0.1 °C 30.9 °F /  -0.6 °C 30.5in /  1032.5hPa Calm     95% 0in /  0.0mm 0 W/m2
21:05 32.2 °F /  0.1 °C 31.1 °F /  -0.5 °C 30.5in /  1032.5hPa Calm     96% 0in /  0.0mm 0 W/m2
21:10 32.2 °F /  0.1 °C 31.1 °F /  -0.5 °C 30.5in /  1032.5hPa Calm     96% 0in /  0.0mm 0 W/m2
21:15 32.2 °F /  0.1 °C 31.1 °F /  -0.5 °C 30.5in /  1032.2hPa Calm     96% 0in /  0.0mm 0 W/m2
21:20 32.4 °F /  0.2 °C 31.3 °F /  -0.4 °C 30.5in /  1032.2hPa Calm     96% 0in /  0.0mm 0 W/m2
21:25 32.4 °F /  0.2 °C 31.3 °F /  -0.4 °C 30.5in /  1032.2hPa Calm     96% 0in /  0.0mm 0 W/m2
21:30 32.4 °F /  0.2 °C 31.3 °F /  -0.4 °C 30.5in /  1032.2hPa Calm     96% 0in /  0.0mm 0 W/m2
21:35 32.4 °F /  0.2 °C 31.3 °F /  -0.4 °C 30.5in /  1032.2hPa Calm     96% 0in /  0.0mm 0 W/m2
21:40 32.4 °F /  0.2 °C 31.3 °F /  -0.4 °C 30.5in /  1032.2hPa Calm     96% 0in /  0.0mm 0 W/m2
21:45 32.2 °F /  0.1 °C 31.1 °F /  -0.5 °C 30.5in /  1032.2hPa Calm     96% 0in /  0.0mm 0 W/m2
21:50 31.8 °F /  -0.1 °C 30.7 °F /  -0.7 °C 30.5in /  1031.8hPa Calm     96% 0in /  0.0mm 0 W/m2
21:55 31.8 °F /  -0.1 °C 30.7 °F /  -0.7 °C 30.5in /  1031.8hPa Calm     96% 0in /  0.0mm 0 W/m2
22:00 31.8 °F /  -0.1 °C 30.7 °F /  -0.7 °C 30.5in /  1031.8hPa Calm     96% 0in /  0.0mm 0 W/m2
22:05 31.6 °F /  -0.2 °C 30.6 °F /  -0.8 °C 30.5in /  1031.8hPa Calm     96% 0in /  0.0mm 0 W/m2
22:10 31.6 °F /  -0.2 °C 30.6 °F /  -0.8 °C 30.5in /  1031.8hPa Calm     96% 0in /  0.0mm 0 W/m2
22:15 31.5 °F /  -0.3 °C 30.4 °F /  -0.9 °C 30.5in /  1031.8hPa Calm     96% 0in /  0.0mm 0 W/m2
22:20 31.3 °F /  -0.4 °C 30.2 °F /  -1 °C 30.5in /  1031.8hPa Calm     96% 0in /  0.0mm 0 W/m2
22:25 31.1 °F /  -0.5 °C 30 °F /  -1.1 °C 30.5in /  1031.8hPa Calm     96% 0in /  0.0mm 0 W/m2
22:30 30.9 °F /  -0.6 °C 29.8 °F /  -1.2 °C 30.5in /  1031.8hPa Calm     96% 0in /  0.0mm 0 W/m2
22:35 30.7 °F /  -0.7 °C 29.5 °F /  -1.4 °C 30.5in /  1031.8hPa Calm     95% 0in /  0.0mm 0 W/m2
22:40 30.6 °F /  -0.8 °C 29.5 °F /  -1.4 °C 30.5in /  1031.8hPa Calm     96% 0in /  0.0mm 0 W/m2
22:45 30.6 °F /  -0.8 °C 29.5 °F /  -1.4 °C 30.5in /  1031.8hPa Calm     96% 0in /  0.0mm 0 W/m2
22:50 30.6 °F /  -0.8 °C 29.5 °F /  -1.4 °C 30.5in /  1031.8hPa Calm     96% 0in /  0.0mm 0 W/m2
22:55 30.6 °F /  -0.8 °C 29.5 °F /  -1.4 °C 30.5in /  1031.8hPa Calm     96% 0in /  0.0mm 0 W/m2
23:00 30.6 °F /  -0.8 °C 29.5 °F /  -1.4 °C 30.5in /  1031.8hPa Calm     96% 0in /  0.0mm 0 W/m2
23:05 30.6 °F /  -0.8 °C 29.5 °F /  -1.4 °C 30.5in /  1031.8hPa Calm     96% 0in /  0.0mm 0 W/m2
23:10 30.6 °F /  -0.8 °C 29.5 °F /  -1.4 °C 30.5in /  1031.8hPa Calm     96% 0in /  0.0mm 0 W/m2
23:15 30.6 °F /  -0.8 °C 29.5 °F /  -1.4 °C 30.5in /  1031.8hPa Calm     96% 0in /  0.0mm 0 W/m2
23:20 30.6 °F /  -0.8 °C 29.5 °F /  -1.4 °C 30.5in /  1031.8hPa Calm     96% 0in /  0.0mm 0 W/m2
23:25 30.6 °F /  -0.8 °C 29.5 °F /  -1.4 °C 30.5in /  1031.8hPa Calm     96% 0in /  0.0mm 0 W/m2
23:30 30.4 °F /  -0.9 °C 29.3 °F /  -1.5 °C 30.5in /  1031.8hPa Calm     96% 0in /  0.0mm 0 W/m2
23:35 30.4 °F /  -0.9 °C 29.3 °F /  -1.5 °C 30.5in /  1031.5hPa Calm     96% 0in /  0.0mm 0 W/m2
23:40 30.4 °F /  -0.9 °C 29.3 °F /  -1.5 °C 30.5in /  1031.5hPa Calm     96% 0in /  0.0mm 0 W/m2
23:45 30.4 °F /  -0.9 °C 29.3 °F /  -1.5 °C 30.5in /  1031.5hPa Calm     96% 0in /  0.0mm 0 W/m2
23:50 30.6 °F /  -0.8 °C 29.5 °F /  -1.4 °C 30.5in /  1031.5hPa Calm     96% 0in /  0.0mm 0 W/m2
23:55 30.6 °F /  -0.8 °C 29.5 °F /  -1.4 °C 30.5in /  1031.5hPa Calm     96% 0in /  0.0mm 0 W/m2
Juneau County Weather
Compliments of Weather Underground - 4 mb